Terminal Aerodrome Forecast
Issued by NWS Bismarck, ND

Home | Current Version | Previous Version | Text Only | Print | Product List | Glossary Off
Versions: 1 2 3 4 5 6 7 8 9 10 11 12 13 14 15 16 17

000
FTUS43 KBIS 232300
TAFISN
TAF
KISN 232333Z 2400/2424 26009KT P6SM SCT250
     FM241100 24006KT 5SM -RASN BR OVC030
     FM241500 30012KT 5SM -RA OVC015
     FM242000 31015G25KT P6SM -RA OVC025=

USA.gov is the U.S. government's official web portal to all federal, state and local government web resources and services.